createdAt,value
2023-05-21T00:02:18.925Z,1.70
2023-05-21T00:04:47.905Z,1.50
2023-05-21T00:07:15.830Z,1.80
2023-05-21T00:09:43.306Z,1.70
2023-05-21T00:12:11.045Z,1.90
2023-05-21T00:14:38.638Z,1.57
2023-05-21T00:17:06.696Z,1.70
2023-05-21T00:19:37.301Z,1.53
2023-05-21T00:22:04.962Z,1.83
2023-05-21T00:24:32.470Z,1.70
2023-05-21T00:27:02.792Z,1.60
2023-05-21T00:29:30.466Z,1.90
2023-05-21T00:31:58.194Z,1.60
2023-05-21T00:34:26.751Z,1.80
2023-05-21T00:36:55.864Z,1.60
2023-05-21T00:39:24.200Z,1.80
2023-05-21T00:41:51.674Z,1.90
2023-05-21T00:44:19.910Z,1.97
2023-05-21T00:46:49.116Z,1.90
2023-05-21T00:49:17.266Z,1.90
2023-05-21T00:51:45.486Z,1.57
2023-05-21T00:54:13.128Z,1.70
2023-05-21T00:56:41.061Z,1.73
2023-05-21T00:59:08.699Z,1.70
2023-05-21T01:01:37.295Z,1.70
2023-05-21T01:04:05.425Z,1.63
2023-05-21T01:06:34.975Z,1.63
2023-05-21T01:09:05.392Z,1.97
2023-05-21T01:11:46.952Z,1.50
2023-05-21T01:14:16.749Z,1.70
2023-05-21T01:16:47.049Z,1.60
2023-05-21T01:19:20.837Z,1.90
2023-05-21T01:21:56.581Z,2.00
2023-05-21T01:24:24.219Z,1.93
2023-05-21T01:26:53.606Z,1.70
2023-05-21T01:29:21.083Z,1.60
2023-05-21T01:32:26.401Z,1.50
2023-05-21T01:35:01.492Z,1.67
2023-05-21T01:37:35.638Z,1.80
2023-05-21T01:40:12.276Z,1.57
2023-05-21T01:42:44.564Z,1.50
2023-05-21T01:45:15.155Z,1.60
2023-05-21T01:47:47.996Z,1.70
2023-05-21T01:50:16.744Z,1.90
2023-05-21T01:52:51.370Z,1.70
2023-05-21T01:55:19.844Z,1.60
2023-05-21T01:57:47.342Z,1.80
2023-05-21T02:00:18.341Z,1.70
2023-05-21T02:02:45.965Z,1.53
2023-05-21T02:05:13.462Z,1.53
2023-05-21T02:07:41.324Z,2.00
2023-05-21T02:10:09.001Z,1.80
2023-05-21T02:12:36.482Z,1.70
2023-05-21T02:15:04.374Z,1.73
2023-05-21T02:17:34.398Z,1.40
2023-05-21T02:20:11.983Z,1.70
2023-05-21T02:22:43.625Z,1.60
2023-05-21T02:25:12.945Z,1.97
2023-05-21T02:27:42.584Z,1.70
2023-05-21T02:30:12.348Z,1.47
2023-05-21T02:32:43.161Z,1.93
2023-05-21T02:35:12.312Z,1.70
2023-05-21T02:37:41.002Z,1.40
2023-05-21T02:40:10.387Z,1.90
2023-05-21T02:42:40.342Z,1.70
2023-05-21T02:45:12.233Z,1.80
2023-05-21T02:47:39.744Z,1.80
2023-05-21T02:50:08.543Z,1.70
2023-05-21T02:52:36.170Z,1.80
2023-05-21T02:55:03.732Z,1.87
2023-05-21T02:57:31.256Z,1.70
2023-05-21T02:59:58.796Z,1.63
2023-05-21T03:02:26.727Z,1.50
2023-05-21T03:04:54.459Z,1.50
2023-05-21T03:07:22.031Z,1.60
2023-05-21T03:09:49.408Z,1.70
2023-05-21T03:12:16.840Z,1.47
2023-05-21T03:14:46.667Z,1.50
2023-05-21T03:17:15.430Z,1.60
2023-05-21T03:19:43.488Z,1.70
2023-05-21T03:22:11.934Z,1.60
2023-05-21T03:24:40.116Z,1.57
2023-05-21T03:27:08.381Z,1.80
2023-05-21T03:29:36.504Z,2.07
2023-05-21T03:32:04.184Z,1.70
2023-05-21T03:34:34.624Z,1.57
2023-05-21T03:37:02.085Z,1.53
2023-05-21T03:39:29.531Z,1.60
2023-05-21T03:41:56.981Z,1.80
2023-05-21T03:44:24.644Z,1.77
2023-05-21T03:46:52.175Z,1.63
2023-05-21T03:49:21.099Z,1.90
2023-05-21T03:51:48.494Z,2.10
2023-05-21T03:54:15.995Z,1.50
2023-05-21T03:56:43.480Z,1.60
2023-05-21T03:59:11.058Z,1.37
2023-05-21T04:01:39.299Z,1.33
2023-05-21T04:04:06.860Z,1.60
2023-05-21T04:06:34.613Z,1.30
2023-05-21T04:09:02.117Z,1.20
2023-05-21T04:11:32.561Z,1.40
2023-05-21T04:14:00.017Z,1.50
2023-05-21T04:16:27.673Z,1.40
2023-05-21T04:18:55.803Z,1.37
2023-05-21T04:21:23.264Z,1.23
2023-05-21T04:23:51.038Z,1.43
2023-05-21T04:26:18.434Z,1.60
2023-05-21T04:28:46.166Z,1.30
2023-05-21T04:31:14.112Z,1.23
2023-05-21T04:33:46.330Z,1.30
2023-05-21T04:36:13.806Z,1.10
2023-05-21T04:38:42.108Z,1.17
2023-05-21T04:41:11.092Z,1.00
2023-05-21T04:43:38.692Z,1.27
2023-05-21T04:46:06.239Z,0.98
2023-05-21T04:48:33.705Z,0.95
2023-05-21T04:51:01.369Z,1.10
2023-05-21T04:53:29.423Z,1.17
2023-05-21T04:55:59.645Z,1.25
2023-05-21T04:58:28.226Z,1.10
2023-05-21T05:00:56.068Z,1.27
2023-05-21T05:03:23.770Z,1.23
2023-05-21T05:05:51.890Z,1.27
2023-05-21T05:08:19.510Z,1.27
2023-05-21T05:10:47.001Z,1.10
2023-05-21T05:13:14.616Z,1.10
2023-05-21T05:15:42.376Z,1.27
2023-05-21T05:18:09.844Z,1.17
2023-05-21T05:20:39.899Z,1.05
2023-05-21T05:23:10.345Z,1.40
2023-05-21T05:25:37.984Z,1.30
2023-05-21T05:28:05.837Z,1.48
2023-05-21T05:30:33.436Z,1.27
2023-05-21T05:33:01.243Z,1.30
2023-05-21T05:35:28.645Z,1.50
2023-05-21T05:37:56.138Z,1.20
2023-05-21T05:40:23.616Z,1.13
2023-05-21T05:42:52.893Z,1.30
2023-05-21T05:45:21.128Z,1.50
2023-05-21T05:47:48.692Z,1.25
2023-05-21T05:50:16.173Z,1.20
2023-05-21T05:52:43.578Z,1.30
2023-05-21T05:55:12.322Z,1.30
2023-05-21T05:57:39.727Z,1.55
2023-05-21T06:00:09.437Z,1.20
2023-05-21T06:02:37.903Z,1.50
2023-05-21T06:05:07.330Z,1.40
2023-05-21T06:07:34.719Z,1.20
2023-05-21T06:10:02.136Z,1.08
2023-05-21T06:12:29.535Z,1.60
2023-05-21T06:14:57.028Z,1.30
2023-05-21T06:17:24.563Z,1.20
2023-05-21T06:19:52.159Z,1.30
2023-05-21T06:22:19.649Z,1.27
2023-05-21T06:24:47.134Z,1.20
2023-05-21T06:27:14.999Z,1.15
2023-05-21T06:29:42.721Z,1.38
2023-05-21T06:32:12.462Z,1.33
2023-05-21T06:34:39.942Z,1.25
2023-05-21T06:37:07.365Z,1.08
2023-05-21T06:39:35.952Z,1.30
2023-05-21T06:42:03.873Z,1.30
2023-05-21T06:44:31.902Z,1.23
2023-05-21T06:46:59.368Z,1.35
2023-05-21T06:49:26.866Z,1.40
2023-05-21T06:51:54.506Z,1.50
2023-05-21T06:54:22.007Z,1.50
2023-05-21T06:56:49.603Z,1.30
2023-05-21T06:59:17.170Z,1.38
2023-05-21T07:01:44.857Z,1.55
2023-05-21T07:04:12.581Z,1.30
2023-05-21T07:06:40.161Z,1.60
2023-05-21T07:09:07.662Z,1.20
2023-05-21T07:11:35.080Z,1.40
2023-05-21T07:14:04.030Z,1.50
2023-05-21T07:16:31.631Z,1.40
2023-05-21T07:19:02.150Z,1.63
2023-05-21T07:21:29.654Z,1.60
2023-05-21T07:23:57.150Z,1.30
2023-05-21T07:26:24.660Z,1.70
2023-05-21T07:28:52.387Z,1.40
2023-05-21T07:31:20.031Z,1.40
2023-05-21T07:33:48.688Z,1.30
2023-05-21T07:36:16.473Z,1.30
2023-05-21T07:38:45.075Z,1.52
2023-05-21T07:41:12.493Z,1.50
2023-05-21T07:43:39.988Z,1.33
2023-05-21T07:46:07.580Z,1.77
2023-05-21T07:48:35.706Z,1.33
2023-05-21T07:51:04.185Z,1.48
2023-05-21T07:53:32.736Z,1.30
2023-05-21T07:56:01.035Z,1.55
2023-05-21T07:58:28.584Z,1.80
2023-05-21T08:00:56.264Z,1.80
2023-05-21T08:03:23.787Z,1.70
2023-05-21T08:05:51.673Z,1.40
2023-05-21T08:08:20.403Z,1.70
2023-05-21T08:10:48.117Z,1.60
2023-05-21T08:13:17.026Z,1.40
2023-05-21T08:15:44.832Z,1.40
2023-05-21T08:18:12.470Z,1.55
2023-05-21T08:20:40.289Z,1.50
2023-05-21T08:23:08.021Z,1.42
2023-05-21T08:25:35.694Z,1.58
2023-05-21T08:28:03.340Z,1.60
2023-05-21T08:30:30.988Z,1.50
2023-05-21T08:32:59.078Z,1.50
2023-05-21T08:35:26.606Z,1.88
2023-05-21T08:37:54.105Z,1.50
2023-05-21T08:40:21.716Z,1.73
2023-05-21T08:42:50.193Z,1.48
2023-05-21T08:45:24.635Z,1.48
2023-05-21T08:47:57.578Z,1.70
2023-05-21T08:50:28.031Z,1.63
2023-05-21T08:52:55.795Z,1.50
2023-05-21T08:55:23.856Z,1.40
2023-05-21T08:57:53.887Z,1.25
2023-05-21T09:00:21.720Z,1.40
2023-05-21T09:02:51.304Z,1.38
2023-05-21T09:05:19.032Z,1.50
2023-05-21T09:08:09.027Z,1.35
2023-05-21T09:10:38.952Z,1.50
2023-05-21T09:13:08.170Z,1.40
2023-05-21T09:15:37.628Z,1.70
2023-05-21T09:18:05.586Z,1.30
2023-05-21T09:20:33.151Z,1.30
2023-05-21T09:23:05.073Z,1.10
2023-05-21T09:25:33.027Z,1.40
2023-05-21T09:28:00.523Z,1.40
2023-05-21T09:30:35.719Z,1.52
2023-05-21T09:33:03.740Z,1.70
2023-05-21T09:35:31.347Z,1.42
2023-05-21T09:37:58.871Z,1.50
2023-05-21T09:40:27.002Z,1.48
2023-05-21T09:42:55.638Z,1.50
2023-05-21T09:45:24.733Z,1.60
2023-05-21T09:47:53.956Z,1.63
2023-05-21T09:50:23.880Z,1.63
2023-05-21T09:52:53.260Z,1.40
2023-05-21T09:55:23.826Z,1.70
2023-05-21T09:57:52.378Z,1.35
2023-05-21T10:00:21.981Z,1.40
2023-05-21T10:03:01.792Z,1.30
2023-05-21T10:05:30.358Z,1.50
2023-05-21T10:08:05.272Z,1.60
2023-05-21T10:10:32.999Z,1.50
2023-05-21T10:13:09.403Z,1.60
2023-05-21T10:15:44.651Z,1.65
2023-05-21T10:18:14.029Z,1.75
2023-05-21T10:20:42.983Z,1.60
2023-05-21T10:23:10.928Z,1.90
2023-05-21T10:25:38.671Z,1.35
2023-05-21T10:28:07.384Z,1.80
2023-05-21T10:30:37.160Z,1.52
2023-05-21T10:33:06.053Z,1.80
2023-05-21T10:35:35.215Z,1.70
2023-05-21T10:38:05.313Z,1.60
2023-05-21T10:40:32.969Z,1.73
2023-05-21T10:43:18.565Z,1.80
2023-05-21T10:46:28.423Z,1.70
2023-05-21T10:49:01.734Z,1.52
2023-05-21T10:51:30.828Z,1.70
2023-05-21T10:54:29.247Z,1.80
2023-05-21T10:57:52.193Z,1.50
2023-05-21T11:00:21.458Z,1.33
2023-05-21T11:02:52.105Z,1.63
2023-05-21T11:05:40.797Z,1.38
2023-05-21T11:08:27.032Z,1.40
2023-05-21T11:10:58.087Z,1.58
2023-05-21T11:13:45.005Z,1.55
2023-05-21T11:16:16.741Z,1.60
2023-05-21T11:18:47.907Z,1.38
2023-05-21T11:21:19.422Z,1.40
2023-05-21T11:23:58.924Z,1.55
2023-05-21T11:26:28.054Z,1.70
2023-05-21T11:29:08.950Z,1.65
2023-05-21T11:31:40.250Z,1.60
2023-05-21T11:34:22.232Z,1.65
2023-05-21T11:36:50.261Z,1.50
2023-05-21T11:39:22.454Z,1.52
2023-05-21T11:42:05.878Z,1.50
2023-05-21T11:44:44.424Z,1.40
2023-05-21T11:47:16.729Z,1.23
2023-05-21T11:49:44.750Z,1.30
2023-05-21T11:52:13.198Z,1.70
2023-05-21T11:54:44.256Z,1.52
2023-05-21T11:57:12.245Z,1.63
2023-05-21T11:59:39.786Z,1.55
2023-05-21T12:02:07.792Z,1.70
2023-05-21T12:04:36.912Z,1.60
2023-05-21T12:07:10.309Z,1.58
2023-05-21T12:09:41.372Z,1.52
2023-05-21T12:12:09.666Z,1.67
2023-05-21T12:14:37.777Z,1.60
2023-05-21T12:17:07.144Z,1.50
2023-05-21T12:19:38.012Z,1.80
2023-05-21T12:22:06.940Z,1.50
2023-05-21T12:24:35.403Z,1.60
2023-05-21T12:27:09.725Z,1.40
2023-05-21T12:29:39.047Z,1.80
2023-05-21T12:32:09.652Z,1.83
2023-05-21T12:34:43.427Z,1.63
2023-05-21T12:37:17.343Z,1.55
2023-05-21T12:39:46.209Z,1.63
2023-05-21T12:42:14.759Z,1.80
2023-05-21T12:44:47.876Z,1.80
2023-05-21T12:47:15.454Z,1.80
2023-05-21T12:49:46.664Z,1.70
2023-05-21T12:52:15.220Z,2.08
2023-05-21T12:54:46.971Z,1.98
2023-05-21T12:57:17.612Z,1.77
2023-05-21T12:59:59.070Z,1.73
2023-05-21T13:02:28.732Z,1.77
2023-05-21T13:05:01.115Z,1.80
2023-05-21T13:07:31.395Z,1.50
2023-05-21T13:09:59.464Z,1.63
2023-05-21T13:12:28.367Z,1.90
2023-05-21T13:14:57.601Z,1.67
2023-05-21T13:17:26.387Z,1.63
2023-05-21T13:20:15.309Z,1.42
2023-05-21T13:22:51.321Z,1.80
2023-05-21T13:25:21.685Z,1.80
2023-05-21T13:27:50.957Z,1.77
2023-05-21T13:30:19.613Z,1.60
2023-05-21T13:32:47.329Z,1.70
2023-05-21T13:35:16.932Z,1.60
2023-05-21T13:37:45.410Z,1.70
2023-05-21T13:40:15.566Z,1.70
2023-05-21T13:42:45.737Z,2.00
2023-05-21T13:45:15.279Z,1.70
2023-05-21T13:47:45.627Z,1.80
2023-05-21T13:50:13.573Z,1.80
2023-05-21T13:52:41.504Z,1.85
2023-05-21T13:55:12.852Z,1.92
2023-05-21T13:57:40.917Z,1.67
2023-05-21T14:00:14.454Z,1.70
2023-05-21T14:02:43.692Z,1.75
2023-05-21T14:05:12.160Z,1.83
2023-05-21T14:07:40.291Z,1.63
2023-05-21T14:10:08.397Z,1.80
2023-05-21T14:12:35.859Z,1.73
2023-05-21T14:15:03.414Z,1.80
2023-05-21T14:17:30.916Z,1.90
2023-05-21T14:19:58.437Z,1.80
2023-05-21T14:22:28.941Z,2.25
2023-05-21T14:24:56.648Z,1.60
2023-05-21T14:27:24.122Z,1.80
2023-05-21T14:29:51.655Z,1.80
2023-05-21T14:32:19.587Z,1.80
2023-05-21T14:34:47.182Z,2.20
2023-05-21T14:37:14.646Z,1.58
2023-05-21T14:39:42.145Z,2.15
2023-05-21T14:42:09.655Z,1.83
2023-05-21T14:44:37.180Z,2.10
2023-05-21T14:47:04.933Z,1.85
2023-05-21T14:49:32.493Z,1.75
2023-05-21T14:52:00.157Z,1.83
2023-05-21T14:54:27.633Z,2.08
2023-05-21T14:56:55.551Z,2.10
2023-05-21T14:59:23.078Z,1.75
2023-05-21T15:01:51.013Z,2.05
2023-05-21T15:04:18.605Z,1.65
2023-05-21T15:06:46.190Z,1.98
2023-05-21T15:09:16.756Z,1.92
2023-05-21T15:11:46.276Z,1.92
2023-05-21T15:14:13.749Z,2.35
2023-05-21T15:16:41.208Z,2.38
2023-05-21T15:19:08.873Z,1.88
2023-05-21T15:21:38.988Z,2.03
2023-05-21T15:24:09.110Z,2.05
2023-05-21T15:26:36.658Z,1.98
2023-05-21T15:29:04.259Z,1.92
2023-05-21T15:31:33.101Z,1.88
2023-05-21T15:34:00.767Z,1.80
2023-05-21T15:36:28.211Z,2.03
2023-05-21T15:38:58.229Z,1.70
2023-05-21T15:41:29.221Z,2.03
2023-05-21T15:43:56.856Z,1.77
2023-05-21T15:46:24.579Z,1.60
2023-05-21T15:48:52.130Z,1.80
2023-05-21T15:51:19.804Z,1.85
2023-05-21T15:53:47.610Z,1.60
2023-05-21T15:56:15.282Z,1.92
2023-05-21T15:58:42.723Z,1.90
2023-05-21T16:01:10.187Z,1.85
2023-05-21T16:03:37.908Z,1.60
2023-05-21T16:06:06.849Z,1.90
2023-05-21T16:08:34.842Z,1.70
2023-05-21T16:11:02.409Z,1.70
2023-05-21T16:13:32.717Z,1.60
2023-05-21T16:16:00.681Z,1.67
2023-05-21T16:18:28.146Z,1.70
2023-05-21T16:20:58.627Z,1.50
2023-05-21T16:23:26.303Z,1.77
2023-05-21T16:25:53.805Z,1.70
2023-05-21T16:28:21.325Z,2.00
2023-05-21T16:30:52.202Z,1.70
2023-05-21T16:33:20.106Z,1.83
2023-05-21T16:35:47.502Z,1.85
2023-05-21T16:38:18.043Z,1.42
2023-05-21T16:40:46.135Z,1.48
2023-05-21T16:43:13.650Z,1.65
2023-05-21T16:45:43.161Z,1.60
2023-05-21T16:48:12.200Z,1.67
2023-05-21T16:50:40.628Z,1.73
2023-05-21T16:53:10.032Z,1.50
2023-05-21T16:55:38.987Z,1.50
2023-05-21T16:58:07.332Z,1.65
2023-05-21T17:00:35.067Z,1.50
2023-05-21T17:03:03.193Z,1.70
2023-05-21T17:05:30.899Z,1.55
2023-05-21T17:07:58.419Z,1.50
2023-05-21T17:10:26.082Z,1.63
2023-05-21T17:12:53.830Z,1.45
2023-05-21T17:15:21.651Z,1.90
2023-05-21T17:17:49.156Z,1.70
2023-05-21T17:20:17.104Z,1.65
2023-05-21T17:22:44.751Z,1.60
2023-05-21T17:25:15.331Z,1.90
2023-05-21T17:27:42.749Z,1.67
2023-05-21T17:30:10.733Z,1.70
2023-05-21T17:32:38.595Z,1.45
2023-05-21T17:35:06.810Z,1.45
2023-05-21T17:37:39.431Z,1.67
2023-05-21T17:40:08.774Z,1.60
2023-05-21T17:42:36.168Z,1.58
2023-05-21T17:45:03.981Z,1.67
2023-05-21T17:47:33.222Z,1.85
2023-05-21T17:50:00.874Z,1.80
2023-05-21T17:52:28.322Z,1.70
2023-05-21T17:54:55.916Z,1.98
2023-05-21T17:57:23.474Z,1.90
2023-05-21T17:59:51.131Z,1.90
2023-05-21T18:02:18.715Z,1.90
2023-05-21T18:04:46.342Z,1.60
2023-05-21T18:07:16.335Z,1.70
2023-05-21T18:09:43.840Z,1.63
2023-05-21T18:12:11.328Z,1.90
2023-05-21T18:14:38.822Z,1.50
2023-05-21T18:17:06.705Z,1.80
2023-05-21T18:19:34.338Z,1.75
2023-05-21T18:22:01.789Z,1.80
2023-05-21T18:24:29.360Z,1.80
2023-05-21T18:26:56.937Z,1.70
2023-05-21T18:29:24.599Z,1.70
2023-05-21T18:31:52.275Z,2.00
2023-05-21T18:34:20.042Z,1.63
2023-05-21T18:36:48.408Z,1.77
2023-05-21T18:39:16.000Z,1.90
2023-05-21T18:41:44.254Z,1.55
2023-05-21T18:44:14.108Z,1.75
2023-05-21T18:46:42.555Z,1.52
2023-05-21T18:49:10.000Z,1.70
2023-05-21T18:51:37.810Z,1.70
2023-05-21T18:54:05.603Z,1.80
2023-05-21T18:56:32.958Z,1.90
2023-05-21T18:59:03.803Z,1.88
2023-05-21T19:01:31.336Z,1.63
2023-05-21T19:03:58.838Z,1.50
2023-05-21T19:06:27.958Z,1.70
2023-05-21T19:08:55.578Z,1.67
2023-05-21T19:11:23.795Z,1.63
2023-05-21T19:13:53.231Z,1.88
2023-05-21T19:16:20.880Z,1.60
2023-05-21T19:18:48.368Z,1.98
2023-05-21T19:21:17.256Z,1.80
2023-05-21T19:23:52.781Z,1.88
2023-05-21T19:26:23.233Z,1.60
2023-05-21T19:28:53.877Z,2.13
2023-05-21T19:31:25.611Z,2.10
2023-05-21T19:33:53.854Z,1.55
2023-05-21T19:36:22.808Z,1.95
2023-05-21T19:38:50.989Z,1.75
2023-05-21T19:41:20.541Z,1.60
2023-05-21T19:43:51.132Z,1.70
2023-05-21T19:46:20.357Z,1.80
2023-05-21T19:48:48.867Z,1.80
2023-05-21T19:51:17.102Z,2.00
2023-05-21T19:53:44.595Z,1.88
2023-05-21T19:56:12.121Z,1.75
2023-05-21T19:58:39.595Z,1.90
2023-05-21T20:01:08.779Z,1.80
2023-05-21T20:03:37.627Z,1.90
2023-05-21T20:06:05.505Z,1.80
2023-05-21T20:08:36.288Z,1.70
2023-05-21T20:11:04.048Z,1.70
2023-05-21T20:13:31.651Z,2.03
2023-05-21T20:15:59.183Z,1.70
2023-05-21T20:18:27.048Z,1.67
2023-05-21T20:20:55.427Z,1.60
2023-05-21T20:23:23.078Z,1.95
2023-05-21T20:25:50.529Z,2.00
2023-05-21T20:28:19.830Z,1.80
2023-05-21T20:30:59.552Z,1.92
2023-05-21T20:33:28.574Z,1.90
2023-05-21T20:35:56.181Z,1.83
2023-05-21T20:38:26.133Z,1.90
2023-05-21T20:40:56.177Z,1.70
2023-05-21T20:43:24.705Z,2.00
2023-05-21T20:45:59.900Z,1.80
2023-05-21T20:48:29.481Z,1.73
2023-05-21T20:50:57.982Z,1.80
2023-05-21T20:53:26.307Z,1.80
2023-05-21T20:55:54.907Z,1.80
2023-05-21T20:58:24.237Z,1.90
2023-05-21T21:00:51.884Z,1.87
2023-05-21T21:03:21.806Z,1.70
2023-05-21T21:05:49.473Z,1.90
2023-05-21T21:08:17.017Z,1.70
2023-05-21T21:10:47.184Z,1.60
2023-05-21T21:13:15.119Z,2.00
2023-05-21T21:15:44.219Z,1.77
2023-05-21T21:18:14.708Z,2.00
2023-05-21T21:20:42.872Z,1.93
2023-05-21T21:23:10.405Z,2.00
2023-05-21T21:25:37.919Z,1.80
2023-05-21T21:28:05.261Z,1.80
2023-05-21T21:30:32.768Z,1.80
2023-05-21T21:33:00.450Z,1.80
2023-05-21T21:35:27.980Z,1.90
2023-05-21T21:37:55.603Z,1.70
2023-05-21T21:40:23.157Z,1.90
2023-05-21T21:42:50.871Z,1.80
2023-05-21T21:45:18.640Z,2.00
2023-05-21T21:47:46.470Z,1.90
2023-05-21T21:50:13.932Z,1.90
2023-05-21T21:52:41.886Z,1.90
2023-05-21T21:55:10.915Z,2.13
2023-05-21T21:57:39.803Z,1.50
2023-05-21T22:00:16.183Z,1.90
2023-05-21T22:02:46.724Z,1.63
2023-05-21T22:05:15.077Z,1.80
2023-05-21T22:07:46.800Z,1.90
2023-05-21T22:10:15.454Z,1.90
2023-05-21T22:12:43.687Z,1.80
2023-05-21T22:15:24.560Z,2.03
2023-05-21T22:17:52.286Z,2.10
2023-05-21T22:20:19.981Z,1.73
2023-05-21T22:22:47.495Z,1.97
2023-05-21T22:25:15.041Z,1.73
2023-05-21T22:27:43.389Z,2.10
2023-05-21T22:30:11.461Z,1.90
2023-05-21T22:32:41.876Z,1.70
2023-05-21T22:35:10.221Z,1.90
2023-05-21T22:37:38.450Z,2.07
2023-05-21T22:40:07.547Z,2.20
2023-05-21T22:42:36.538Z,1.83
2023-05-21T22:45:04.543Z,2.03
2023-05-21T22:47:32.485Z,1.80
2023-05-21T22:50:01.620Z,2.10
2023-05-21T22:52:29.113Z,1.87
2023-05-21T22:54:58.172Z,1.80
2023-05-21T22:57:25.781Z,2.10
2023-05-21T22:59:53.244Z,2.13
2023-05-21T23:02:20.941Z,2.17
2023-05-21T23:04:49.599Z,1.80
2023-05-21T23:07:17.057Z,1.60
2023-05-21T23:09:44.537Z,1.90
2023-05-21T23:12:12.769Z,1.80
2023-05-21T23:14:40.225Z,2.10
2023-05-21T23:17:07.733Z,1.70
2023-05-21T23:19:35.295Z,1.80
2023-05-21T23:22:03.032Z,2.00
2023-05-21T23:24:31.011Z,2.00
2023-05-21T23:27:02.999Z,2.10
2023-05-21T23:29:30.896Z,2.00
2023-05-21T23:31:58.591Z,1.90
2023-05-21T23:34:26.177Z,1.90
2023-05-21T23:36:53.874Z,1.90
2023-05-21T23:39:21.596Z,1.70
2023-05-21T23:41:49.374Z,1.90
2023-05-21T23:44:18.584Z,2.03
2023-05-21T23:46:46.324Z,1.87
2023-05-21T23:49:14.126Z,2.00
2023-05-21T23:51:41.756Z,2.07
2023-05-21T23:54:09.267Z,2.30
2023-05-21T23:56:36.817Z,2.00
2023-05-21T23:59:04.222Z,2.20
